Time;durP1;ratioP1;P1;durP2;ratioP2;P2;SDS_P1;SDS_P2;PMS_P1;PMS_P2;Temp;Humidity;BMP_temperature;BMP_pressure;BME280_temperature;BME280_humidity;BME280_pressure;Samples;Min_cycle;Max_cycle;Signal;HPM_P1;HPM_P2
2023/07/01 00:01:05;;;;;;;10.40;4.45;;;19.10;99.90;;;;;;4823152;29;20145;-76
2023/07/01 00:03:32;;;;;;;7.72;3.92;;;18.90;99.90;;;;;;4824864;29;20054;-77
2023/07/01 00:05:58;;;;;;;5.97;5.18;;;18.90;99.90;;;;;;4823243;29;20141;-76
2023/07/01 00:08:25;;;;;;;4.57;3.90;;;18.90;99.90;;;;;;4828265;29;20046;-76
2023/07/01 00:10:58;;;;;;;4.28;3.72;;;18.90;99.90;;;;;;4823762;29;20509;-76
2023/07/01 00:13:24;;;;;;;3.50;3.20;;;19.00;99.90;;;;;;4820694;29;20083;-77
2023/07/01 00:15:51;;;;;;;6.88;4.13;;;19.00;99.90;;;;;;4824140;29;20085;-76
2023/07/01 00:18:18;;;;;;;4.72;3.42;;;19.00;99.90;;;;;;4824695;29;20058;-76
2023/07/01 00:20:46;;;;;;;6.40;3.97;;;19.10;99.90;;;;;;4822860;29;20058;-76
2023/07/01 00:23:13;;;;;;;7.25;4.30;;;19.10;99.90;;;;;;4828255;29;20055;-76
2023/07/01 00:25:40;;;;;;;5.85;3.58;;;19.10;99.90;;;;;;4827409;29;20066;-76
2023/07/01 00:28:06;;;;;;;5.80;3.40;;;19.10;99.90;;;;;;4823508;29;20058;-77
2023/07/01 00:30:33;;;;;;;5.88;4.40;;;19.10;99.90;;;;;;4822752;29;20573;-76
2023/07/01 00:33:01;;;;;;;5.82;4.03;;;19.10;99.90;;;;;;4824417;29;20113;-76
2023/07/01 00:35:28;;;;;;;5.35;3.78;;;19.10;99.90;;;;;;4823378;29;20042;-77
2023/07/01 00:37:55;;;;;;;6.13;4.13;;;19.10;99.90;;;;;;4826635;29;20081;-78
2023/07/01 00:40:21;;;;;;;7.63;3.60;;;19.10;99.90;;;;;;4827954;29;20110;-78
2023/07/01 00:42:48;;;;;;;4.50;3.72;;;19.10;99.90;;;;;;4822962;29;20058;-77
2023/07/01 00:45:15;;;;;;;8.18;3.72;;;19.10;99.90;;;;;;4823240;29;20050;-78
2023/07/01 00:47:42;;;;;;;6.10;3.67;;;19.10;99.90;;;;;;4823669;29;20141;-78
2023/07/01 00:50:11;;;;;;;4.80;3.55;;;19.00;99.90;;;;;;4822266;29;20050;-77
2023/07/01 00:52:38;;;;;;;7.50;3.63;;;19.00;99.90;;;;;;4828143;29;20082;-77
2023/07/01 00:55:12;;;;;;;6.07;3.85;;;19.00;99.90;;;;;;4832397;29;20050;-77
2023/07/01 00:57:39;;;;;;;4.93;3.67;;;19.00;99.90;;;;;;4827044;29;20050;-77
2023/07/01 01:00:10;;;;;;;4.18;3.45;;;19.00;99.90;;;;;;4825599;29;20124;-77
2023/07/01 01:02:56;;;;;;;6.28;3.75;;;19.00;99.90;;;;;;4827373;29;20057;-77
2023/07/01 01:05:43;;;;;;;6.03;3.60;;;19.00;99.90;;;;;;4827157;29;20061;-78
2023/07/01 01:08:20;;;;;;;6.20;3.97;;;18.90;99.90;;;;;;4832067;29;20085;-77
2023/07/01 01:10:49;;;;;;;6.93;3.75;;;19.00;99.90;;;;;;4815421;29;20061;-78
2023/07/01 01:13:19;;;;;;;5.68;4.10;;;18.90;99.90;;;;;;4827141;29;20050;-77
2023/07/01 01:15:46;;;;;;;7.93;4.05;;;18.90;99.90;;;;;;4827084;29;20046;-77
2023/07/01 01:18:18;;;;;;;4.35;3.38;;;18.90;99.90;;;;;;4829332;29;20047;-78
2023/07/01 01:20:48;;;;;;;9.90;3.75;;;18.80;99.90;;;;;;4827354;29;20054;-77
2023/07/01 01:23:29;;;;;;;;;;;18.90;99.90;;;;;;4836284;29;20060;-77
2023/07/01 01:26:06;;;;;;;8.20;3.92;;;18.90;99.90;;;;;;4832976;29;20414;-78
2023/07/01 01:28:36;;;;;;;7.45;4.10;;;18.80;99.90;;;;;;4830030;29;20084;-78
2023/07/01 01:31:04;;;;;;;3.95;3.55;;;18.90;99.90;;;;;;4829856;29;20050;-77
2023/07/01 01:33:31;;;;;;;9.48;4.15;;;18.80;99.90;;;;;;4831641;29;20078;-77
2023/07/01 01:36:42;;;;;;;3.95;3.47;;;18.90;99.90;;;;;;4828771;29;20495;-78
2023/07/01 01:39:09;;;;;;;;;;;18.90;99.90;;;;;;4820016;29;20051;-76
2023/07/01 01:41:58;;;;;;;7.55;3.60;;;18.90;99.90;;;;;;4830612;29;19931;-77
2023/07/01 01:44:47;;;;;;;6.13;4.07;;;18.90;99.90;;;;;;4831504;29;20046;-78
2023/07/01 01:47:25;;;;;;;6.22;4.72;;;18.90;99.90;;;;;;4832112;29;20931;-77
2023/07/01 01:49:55;;;;;;;4.03;3.28;;;18.90;99.90;;;;;;4828520;29;20144;-76
2023/07/01 01:52:23;;;;;;;6.55;3.90;;;18.80;99.90;;;;;;4829555;29;20049;-77
2023/07/01 01:54:52;;;;;;;5.43;3.58;;;18.80;99.90;;;;;;4834931;29;20060;-77
2023/07/01 01:57:19;;;;;;;6.10;3.88;;;18.90;99.90;;;;;;4825531;29;20078;-76
2023/07/01 01:59:46;;;;;;;7.10;3.78;;;18.90;99.90;;;;;;4827846;29;20173;-77
2023/07/01 02:02:13;;;;;;;4.88;3.25;;;18.90;99.90;;;;;;4828986;29;20552;-77
2023/07/01 02:04:40;;;;;;;8.30;3.40;;;18.90;99.90;;;;;;4829717;29;20065;-77
2023/07/01 02:07:07;;;;;;;3.58;3.28;;;18.80;99.90;;;;;;4827273;29;20050;-77
2023/07/01 02:09:34;;;;;;;5.30;3.80;;;18.90;99.90;;;;;;4834174;29;20099;-77
2023/07/01 02:12:00;;;;;;;4.25;3.58;;;18.80;99.90;;;;;;4827422;29;20054;-77
2023/07/01 02:14:27;;;;;;;6.82;3.75;;;18.90;99.90;;;;;;4824647;29;20103;-77
2023/07/01 02:16:54;;;;;;;6.82;3.58;;;18.90;99.90;;;;;;4824211;29;20581;-78
2023/07/01 02:19:21;;;;;;;5.05;3.95;;;18.90;99.90;;;;;;4828291;29;20515;-77
2023/07/01 02:21:48;;;;;;;5.53;3.72;;;19.00;99.90;;;;;;4827209;29;20094;-77
2023/07/01 02:24:14;;;;;;;4.10;2.95;;;19.00;99.90;;;;;;4834380;29;20096;-77
2023/07/01 02:26:41;;;;;;;8.63;3.45;;;19.00;99.90;;;;;;4826036;29;20138;-78
2023/07/01 02:29:08;;;;;;;8.45;3.50;;;18.90;99.90;;;;;;4824697;29;20115;-77
2023/07/01 02:31:35;;;;;;;6.88;3.38;;;18.90;99.90;;;;;;4824855;29;20053;-78
2023/07/01 02:34:02;;;;;;;6.05;3.72;;;18.90;99.90;;;;;;4827188;29;20084;-77
2023/07/01 02:36:29;;;;;;;4.95;3.30;;;18.90;99.90;;;;;;4824733;29;20054;-77
2023/07/01 02:38:56;;;;;;;3.67;3.05;;;18.90;99.90;;;;;;4834184;29;20134;-77
2023/07/01 02:41:23;;;;;;;8.70;3.70;;;18.90;99.90;;;;;;4830557;29;20058;-76
2023/07/01 02:43:50;;;;;;;8.90;3.60;;;18.90;99.90;;;;;;4827353;29;20054;-77
2023/07/01 02:46:16;;;;;;;5.75;3.33;;;18.90;99.90;;;;;;4824647;29;20543;-76
2023/07/01 02:48:43;;;;;;;5.65;3.05;;;18.80;99.90;;;;;;4834549;29;20501;-76
2023/07/01 02:51:10;;;;;;;4.35;3.40;;;18.80;99.90;;;;;;4830538;29;20098;-77
2023/07/01 02:53:37;;;;;;;4.43;3.08;;;18.80;99.90;;;;;;4835430;29;20130;-77
2023/07/01 02:56:03;;;;;;;3.97;3.33;;;18.80;99.90;;;;;;4825554;29;20054;-77
2023/07/01 02:58:30;;;;;;;5.57;3.30;;;18.80;99.90;;;;;;4824084;29;20486;-77
2023/07/01 03:00:57;;;;;;;6.75;3.47;;;18.80;99.90;;;;;;4822468;29;20085;-77
2023/07/01 03:03:23;;;;;;;5.65;3.40;;;18.80;99.90;;;;;;4824844;29;20061;-77
2023/07/01 03:05:50;;;;;;;4.65;3.15;;;18.80;99.90;;;;;;4825484;29;20097;-77
2023/07/01 03:08:17;;;;;;;8.73;3.22;;;18.80;99.90;;;;;;4830591;29;20520;-77
2023/07/01 03:10:44;;;;;;;4.40;3.10;;;18.80;99.90;;;;;;4828939;29;20054;-78
2023/07/01 03:13:11;;;;;;;5.97;3.28;;;18.70;99.90;;;;;;4823828;29;20054;-77
2023/07/01 03:15:38;;;;;;;7.85;3.70;;;18.70;99.90;;;;;;4819977;29;20128;-77
2023/07/01 03:18:04;;;;;;;11.90;3.63;;;18.70;99.90;;;;;;4826260;29;20054;-77
2023/07/01 03:20:31;;;;;;;7.85;3.40;;;18.60;99.90;;;;;;4826323;29;20065;-77
2023/07/01 03:22:58;;;;;;;9.18;3.85;;;18.60;99.90;;;;;;4824230;29;20528;-77
2023/07/01 03:25:25;;;;;;;9.52;3.53;;;18.60;99.90;;;;;;4829187;29;20089;-76
2023/07/01 03:27:53;;;;;;;10.48;3.40;;;18.50;99.90;;;;;;4822428;29;20046;-78
2023/07/01 03:30:27;;;;;;;5.75;3.20;;;18.50;99.90;;;;;;4823834;29;20139;-77
2023/07/01 03:32:54;;;;;;;5.57;2.70;;;18.40;99.90;;;;;;4807675;29;20058;-76
2023/07/01 03:35:21;;;;;;;4.93;3.13;;;18.30;99.90;;;;;;4807168;29;20099;-77
2023/07/01 03:37:48;;;;;;;5.13;2.90;;;18.30;99.90;;;;;;4828661;29;20050;-76
2023/07/01 03:40:14;;;;;;;8.13;3.47;;;18.30;99.90;;;;;;4806931;29;20569;-77
2023/07/01 03:42:42;;;;;;;11.43;3.10;;;18.20;99.90;;;;;;4823507;29;20086;-77
2023/07/01 03:45:11;;;;;;;4.40;2.85;;;18.20;99.90;;;;;;4823660;29;20080;-77
2023/07/01 03:47:44;;;;;;;6.32;2.92;;;18.10;99.90;;;;;;4825353;29;20050;-76
2023/07/01 03:50:11;;;;;;;7.40;2.90;;;18.10;99.90;;;;;;4825612;29;20085;-77
2023/07/01 03:52:39;;;;;;;3.78;3.15;;;18.10;99.90;;;;;;4828209;29;20118;-76
2023/07/01 03:55:13;;;;;;;6.05;3.10;;;18.10;99.90;;;;;;4823722;29;20055;-77
2023/07/01 03:57:41;;;;;;;6.43;2.95;;;18.10;99.90;;;;;;4823497;29;20058;-77
2023/07/01 04:00:17;;;;;;;3.28;2.40;;;18.00;99.90;;;;;;4822730;29;20331;-77
2023/07/01 04:02:47;;;;;;;6.60;2.53;;;18.00;99.90;;;;;;4825011;29;20512;-76
2023/07/01 04:05:15;;;;;;;6.32;2.30;;;18.00;99.90;;;;;;4826837;29;20069;-77
2023/07/01 04:07:43;;;;;;;7.47;2.50;;;17.90;99.90;;;;;;4827174;29;20107;-77
2023/07/01 04:10:10;;;;;;;4.88;2.15;;;17.90;99.90;;;;;;4806183;29;20493;-76
2023/07/01 04:12:39;;;;;;;4.85;2.15;;;18.00;99.90;;;;;;4823628;29;20330;-77
2023/07/01 04:15:09;;;;;;;4.72;2.38;;;18.00;99.90;;;;;;4823049;29;20062;-76
2023/07/01 04:17:39;;;;;;;8.57;2.45;;;18.00;99.90;;;;;;4825109;29;20050;-76
2023/07/01 04:20:07;;;;;;;5.25;2.58;;;18.00;99.90;;;;;;4826729;29;20054;-77
2023/07/01 04:22:33;;;;;;;7.05;2.45;;;18.00;99.90;;;;;;4822992;29;20106;-76
2023/07/01 04:25:00;;;;;;;4.53;2.10;;;18.00;99.90;;;;;;4822763;29;20059;-78
2023/07/01 04:27:27;;;;;;;5.82;2.13;;;18.00;99.90;;;;;;4827423;29;20059;-77
2023/07/01 04:29:54;;;;;;;6.57;2.10;;;18.00;99.90;;;;;;4826483;29;20082;-77
2023/07/01 04:32:20;;;;;;;4.10;2.10;;;18.00;99.90;;;;;;4831810;29;20133;-77
2023/07/01 04:34:48;;;;;;;3.55;1.88;;;18.00;99.90;;;;;;4831273;29;20050;-76
2023/07/01 04:37:14;;;;;;;3.10;1.77;;;17.90;99.90;;;;;;4826503;29;20469;-76
2023/07/01 04:39:41;;;;;;;6.43;1.65;;;18.00;99.90;;;;;;4826845;29;20050;-77
2023/07/01 04:42:08;;;;;;;2.40;1.50;;;18.00;99.90;;;;;;4827574;29;20115;-77
2023/07/01 04:44:35;;;;;;;3.22;1.70;;;18.00;99.90;;;;;;4827389;29;20084;-76
2023/07/01 04:47:01;;;;;;;5.35;1.75;;;18.00;99.90;;;;;;4830107;29;20050;-77
2023/07/01 04:49:28;;;;;;;2.97;1.50;;;18.00;99.90;;;;;;4827934;29;20050;-77
2023/07/01 04:51:56;;;;;;;8.32;1.70;;;18.00;99.90;;;;;;4810480;29;20099;-76
2023/07/01 04:54:22;;;;;;;4.03;1.52;;;18.00;99.90;;;;;;4823710;29;20106;-77
2023/07/01 04:56:49;;;;;;;5.63;1.77;;;18.10;99.90;;;;;;4827381;29;20050;-77
2023/07/01 04:59:16;;;;;;;2.42;1.60;;;18.10;99.90;;;;;;4827035;29;20573;-76
2023/07/01 05:01:42;;;;;;;6.78;1.52;;;18.20;99.90;;;;;;4831936;29;20141;-77
2023/07/01 05:04:09;;;;;;;3.47;1.63;;;18.30;99.90;;;;;;4833640;29;20062;-77
2023/07/01 05:06:36;;;;;;;4.85;1.70;;;18.40;99.90;;;;;;4828763;29;20057;-76
2023/07/01 05:09:04;;;;;;;2.15;1.33;;;18.50;99.90;;;;;;4827755;29;20111;-77
2023/07/01 05:11:31;;;;;;;5.60;1.38;;;18.60;99.90;;;;;;4828344;29;20093;-77
2023/07/01 05:13:58;;;;;;;2.15;1.20;;;18.70;99.90;;;;;;4827929;29;20051;-76
2023/07/01 05:16:24;;;;;;;3.60;1.20;;;18.70;99.90;;;;;;4828211;29;20053;-76
2023/07/01 05:18:54;;;;;;;3.60;2.13;;;18.80;99.90;;;;;;4834780;29;20489;-77
2023/07/01 05:21:20;;;;;;;4.35;1.33;;;18.90;99.90;;;;;;4827634;29;20050;-77
2023/07/01 05:23:47;;;;;;;2.67;1.67;;;19.00;99.90;;;;;;4829565;29;20505;-76
2023/07/01 05:26:14;;;;;;;4.15;1.33;;;19.10;99.90;;;;;;4824637;29;20050;-77
2023/07/01 05:28:40;;;;;;;2.72;1.45;;;19.20;99.90;;;;;;4828692;29;20111;-77
2023/07/01 05:31:07;;;;;;;3.30;1.10;;;19.20;99.90;;;;;;4825236;29;20054;-77
2023/07/01 05:33:34;;;;;;;3.30;1.70;;;19.30;99.90;;;;;;4824505;29;20050;-77
2023/07/01 05:36:01;;;;;;;2.78;1.38;;;19.30;99.90;;;;;;4824379;29;20110;-77
2023/07/01 05:38:27;;;;;;;3.85;1.30;;;19.30;99.90;;;;;;4824916;29;20125;-77
2023/07/01 05:40:54;;;;;;;4.00;1.10;;;19.30;99.90;;;;;;4825241;29;20054;-77
2023/07/01 05:43:21;;;;;;;4.05;1.20;;;19.30;99.90;;;;;;4824785;29;20134;-77
2023/07/01 05:45:47;;;;;;;4.63;1.40;;;19.40;99.90;;;;;;4829227;29;20422;-77
2023/07/01 05:48:14;;;;;;;2.88;1.00;;;19.40;99.90;;;;;;4828748;29;20086;-77
2023/07/01 05:50:41;;;;;;;3.80;1.33;;;19.40;99.90;;;;;;4826461;29;20089;-77
2023/07/01 05:53:08;;;;;;;4.60;1.35;;;19.40;99.90;;;;;;4833868;29;20057;-76
2023/07/01 05:55:36;;;;;;;6.50;1.00;;;19.40;99.90;;;;;;4826911;29;20054;-77
2023/07/01 05:58:02;;;;;;;6.85;1.60;;;19.40;99.90;;;;;;4838570;29;20077;-76
2023/07/01 06:00:29;;;;;;;4.85;1.55;;;19.30;99.90;;;;;;4834962;29;20061;-76
2023/07/01 06:02:56;;;;;;;4.75;1.40;;;19.30;99.90;;;;;;4842807;29;20078;-76
2023/07/01 06:05:23;;;;;;;4.45;1.70;;;19.30;99.90;;;;;;4831930;29;20050;-76
2023/07/01 06:07:49;;;;;;;3.63;1.30;;;19.30;99.90;;;;;;4826729;29;20077;-76
2023/07/01 06:10:16;;;;;;;2.75;1.48;;;19.30;99.90;;;;;;4825064;29;20085;-76
2023/07/01 06:12:43;;;;;;;3.75;1.50;;;19.20;99.90;;;;;;4829912;29;20133;-76
2023/07/01 06:15:10;;;;;;;4.65;1.25;;;19.20;99.90;;;;;;4824764;29;20054;-76
2023/07/01 06:17:37;;;;;;;7.68;1.40;;;19.20;99.90;;;;;;4833845;29;20626;-77
2023/07/01 06:20:05;;;;;;;6.30;1.45;;;19.20;99.90;;;;;;4826425;29;20120;-77
2023/07/01 06:22:32;;;;;;;5.22;1.50;;;19.20;99.90;;;;;;4826218;29;20054;-77
2023/07/01 06:24:58;;;;;;;5.50;1.60;;;19.20;99.90;;;;;;4828387;29;20137;-76
2023/07/01 06:27:25;;;;;;;6.63;1.33;;;19.20;99.90;;;;;;4833202;29;20129;-77
2023/07/01 06:29:52;;;;;;;2.55;1.23;;;19.20;99.90;;;;;;4828544;29;20076;-77
2023/07/01 06:32:18;;;;;;;3.88;1.67;;;19.20;99.90;;;;;;4839468;29;20465;-77
2023/07/01 06:34:46;;;;;;;5.05;1.27;;;19.30;99.90;;;;;;4832095;29;20090;-76
2023/07/01 06:37:13;;;;;;;3.08;1.15;;;19.30;99.90;;;;;;4832809;29;20103;-77
2023/07/01 06:39:39;;;;;;;2.10;1.40;;;19.30;99.90;;;;;;4827309;29;20114;-77
2023/07/01 06:42:06;;;;;;;5.25;1.17;;;19.20;99.90;;;;;;4830609;29;20058;-76
2023/07/01 06:44:33;;;;;;;3.25;1.20;;;19.30;99.90;;;;;;4827441;29;20047;-76
2023/07/01 06:47:01;;;;;;;5.32;1.52;;;19.30;99.90;;;;;;4832529;29;20070;-77
2023/07/01 06:49:28;;;;;;;3.65;1.80;;;19.30;99.90;;;;;;4822902;29;20110;-77
2023/07/01 06:51:54;;;;;;;2.35;1.55;;;19.30;99.90;;;;;;4825724;29;20112;-76
2023/07/01 06:54:21;;;;;;;4.25;1.50;;;19.30;99.90;;;;;;4824641;29;20046;-78
2023/07/01 06:56:48;;;;;;;6.72;1.80;;;19.30;99.90;;;;;;4826581;29;20055;-78
2023/07/01 06:59:14;;;;;;;3.03;1.85;;;19.30;99.90;;;;;;4827390;29;20107;-76
2023/07/01 07:01:41;;;;;;;2.85;1.73;;;19.30;99.90;;;;;;4830793;29;20058;-76
2023/07/01 07:04:08;;;;;;;3.75;1.70;;;19.30;99.90;;;;;;4824601;29;20058;-76
2023/07/01 07:06:35;;;;;;;4.38;1.35;;;19.30;99.90;;;;;;4828375;29;20051;-76
2023/07/01 07:09:03;;;;;;;2.78;1.33;;;19.40;99.90;;;;;;4825971;29;20133;-77
2023/07/01 07:11:30;;;;;;;3.03;1.40;;;19.40;99.90;;;;;;4833602;29;20119;-76
2023/07/01 07:13:57;;;;;;;2.17;1.30;;;19.40;99.90;;;;;;4828718;29;20045;-78
2023/07/01 07:16:26;;;;;;;3.17;1.75;;;19.40;99.90;;;;;;4824580;29;20114;-76
2023/07/01 07:18:53;;;;;;;3.58;2.00;;;19.40;99.90;;;;;;4824256;29;20689;-76
2023/07/01 07:21:19;;;;;;;4.93;1.60;;;19.40;99.90;;;;;;4825494;29;20050;-76
2023/07/01 07:23:46;;;;;;;5.07;1.75;;;19.50;99.90;;;;;;4824185;29;20062;-76
2023/07/01 07:26:14;;;;;;;3.78;1.70;;;19.50;99.90;;;;;;4828817;29;20111;-77
2023/07/01 07:28:40;;;;;;;4.78;1.50;;;19.50;99.90;;;;;;4830169;29;20065;-76
2023/07/01 07:31:07;;;;;;;3.60;1.42;;;19.50;99.90;;;;;;4823636;29;20118;-77
2023/07/01 07:33:34;;;;;;;3.22;1.38;;;19.60;99.90;;;;;;4829671;29;20050;-77
2023/07/01 07:36:01;;;;;;;3.42;1.70;;;19.60;99.90;;;;;;4826879;29;20082;-76
2023/07/01 07:38:27;;;;;;;4.38;1.50;;;19.60;99.90;;;;;;4824759;29;20053;-76
2023/07/01 07:40:54;;;;;;;6.50;1.83;;;19.60;99.90;;;;;;4827443;29;20103;-76
2023/07/01 07:43:21;;;;;;;3.67;1.50;;;19.70;99.90;;;;;;4828935;29;20054;-77
2023/07/01 07:45:47;;;;;;;5.68;1.35;;;19.70;99.90;;;;;;4824181;29;20097;-77
2023/07/01 07:48:14;;;;;;;6.78;1.77;;;19.70;99.90;;;;;;4823972;29;20092;-77
2023/07/01 07:50:41;;;;;;;5.65;2.10;;;19.80;99.90;;;;;;4824716;29;20094;-77
2023/07/01 07:53:07;;;;;;;6.20;1.50;;;19.70;99.90;;;;;;4825459;29;20490;-76
2023/07/01 07:55:34;;;;;;;6.85;1.40;;;19.80;99.90;;;;;;4826319;29;20482;-77
2023/07/01 07:58:01;;;;;;;4.82;1.60;;;19.80;99.90;;;;;;4832049;29;20054;-76
2023/07/01 08:00:28;;;;;;;4.32;1.50;;;19.80;99.90;;;;;;4827445;29;20050;-77
2023/07/01 08:02:55;;;;;;;2.72;1.48;;;19.90;99.90;;;;;;4809362;29;20106;-77
2023/07/01 08:05:24;;;;;;;5.38;1.48;;;19.90;99.90;;;;;;4825036;29;20055;-77
2023/07/01 08:07:51;;;;;;;5.38;1.50;;;20.00;99.90;;;;;;4827030;29;20409;-77
2023/07/01 08:10:18;;;;;;;3.40;1.38;;;20.10;99.90;;;;;;4825160;29;20485;-77
2023/07/01 08:12:44;;;;;;;6.22;1.52;;;20.10;99.90;;;;;;4835466;29;20058;-77
2023/07/01 08:15:11;;;;;;;7.07;1.45;;;20.20;99.90;;;;;;4826873;29;20585;-76
2023/07/01 08:17:39;;;;;;;2.95;1.20;;;20.20;99.90;;;;;;4830266;29;20050;-77
2023/07/01 08:20:07;;;;;;;2.72;1.17;;;20.30;99.90;;;;;;4823394;29;20065;-77
2023/07/01 08:22:33;;;;;;;6.03;1.13;;;20.30;99.90;;;;;;4826184;29;20054;-77
2023/07/01 08:25:00;;;;;;;2.85;1.33;;;20.30;99.90;;;;;;4823407;29;20133;-77
2023/07/01 08:27:27;;;;;;;2.10;1.30;;;20.40;99.90;;;;;;4832452;29;20097;-76
2023/07/01 08:29:53;;;;;;;2.60;1.83;;;20.30;99.90;;;;;;4825689;29;20051;-78
2023/07/01 08:32:20;;;;;;;4.40;2.03;;;20.30;99.90;;;;;;4823194;29;20054;-77
2023/07/01 08:34:47;;;;;;;5.22;1.33;;;20.40;99.90;;;;;;4825530;29;20463;-78
2023/07/01 08:37:14;;;;;;;3.97;1.25;;;20.30;99.90;;;;;;4829301;29;20058;-78
2023/07/01 08:39:40;;;;;;;3.45;1.45;;;20.40;99.90;;;;;;4830781;29;20492;-79
2023/07/01 08:42:09;;;;;;;2.40;1.30;;;20.50;99.90;;;;;;4832845;29;20082;-79
2023/07/01 08:44:39;;;;;;;3.00;1.20;;;20.60;99.90;;;;;;4826476;29;20082;-78
2023/07/01 08:47:07;;;;;;;6.03;1.45;;;20.60;99.90;;;;;;4825057;29;20115;-77
2023/07/01 08:49:38;;;;;;;5.20;1.20;;;20.70;99.90;;;;;;4823244;29;20054;-77
2023/07/01 08:52:08;;;;;;;4.13;1.63;;;20.80;99.90;;;;;;4827641;29;20050;-77
2023/07/01 08:54:36;;;;;;;3.63;1.20;;;20.90;99.90;;;;;;4825467;29;20473;-77
2023/07/01 08:57:04;;;;;;;7.18;1.60;;;21.00;99.90;;;;;;4832230;29;20078;-78
2023/07/01 08:59:31;;;;;;;8.65;1.20;;;21.10;99.90;;;;;;4823384;29;20058;-78
2023/07/01 09:01:59;;;;;;;4.40;1.40;;;21.10;99.90;;;;;;4822422;29;20084;-78
2023/07/01 09:04:27;;;;;;;5.82;1.25;;;21.20;99.90;;;;;;4823604;29;20404;-78
2023/07/01 09:06:54;;;;;;;6.40;1.75;;;21.30;99.90;;;;;;4828135;29;20478;-77
2023/07/01 09:09:21;;;;;;;3.72;1.40;;;21.50;99.90;;;;;;4824136;29;20107;-77
2023/07/01 09:11:47;;;;;;;5.10;1.70;;;21.60;99.90;;;;;;4832105;29;20050;-77
2023/07/01 09:14:14;;;;;;;5.47;1.25;;;21.80;99.90;;;;;;4825642;29;20055;-77
2023/07/01 09:16:41;;;;;;;3.72;1.25;;;22.00;99.90;;;;;;4826452;29;20082;-77
2023/07/01 09:19:10;;;;;;;3.17;1.50;;;22.20;99.90;;;;;;4826230;29;20078;-77
2023/07/01 09:21:38;;;;;;;6.43;1.30;;;22.40;99.90;;;;;;4815157;29;20490;-77
2023/07/01 09:24:06;;;;;;;8.43;1.40;;;22.50;99.90;;;;;;4826947;29;20398;-77
2023/07/01 09:26:33;;;;;;;3.65;1.42;;;22.60;99.90;;;;;;4836354;29;20050;-77
2023/07/01 09:29:19;;;;;;;4.70;1.20;;;22.70;99.90;;;;;;4825597;29;20054;-77
2023/07/01 09:31:47;;;;;;;3.38;1.20;;;22.70;99.90;;;;;;4808306;29;20107;-78
2023/07/01 09:34:16;;;;;;;2.15;1.40;;;22.70;99.90;;;;;;4825528;29;20054;-77
2023/07/01 09:36:43;;;;;;;2.38;1.25;;;22.80;99.90;;;;;;4824465;29;20087;-78
2023/07/01 09:39:10;;;;;;;3.38;1.20;;;22.90;99.90;;;;;;4826415;29;20414;-77
2023/07/01 09:41:37;;;;;;;3.90;1.40;;;23.00;99.90;;;;;;4825384;29;20504;-78
2023/07/01 09:44:18;;;;;;;5.28;1.40;;;23.10;99.90;;;;;;4825440;29;20050;-78
2023/07/01 09:46:46;;;;;;;4.75;1.10;;;23.20;99.90;;;;;;4825125;29;20050;-77
2023/07/01 09:49:13;;;;;;;2.83;1.38;;;23.30;99.90;;;;;;4824854;29;20146;-78
2023/07/01 09:51:48;;;;;;;4.55;1.40;;;23.40;99.90;;;;;;4832288;29;20050;-78
2023/07/01 09:54:27;;;;;;;4.60;1.20;;;23.50;99.90;;;;;;4827047;29;20058;-77
2023/07/01 09:56:56;;;;;;;3.83;1.52;;;23.60;99.90;;;;;;4830791;29;20062;-77
2023/07/01 09:59:23;;;;;;;7.13;1.42;;;23.60;99.90;;;;;;4827057;29;20058;-78
2023/07/01 10:01:54;;;;;;;4.15;1.83;;;23.70;99.90;;;;;;4814819;29;20126;-76
2023/07/01 10:04:25;;;;;;;4.05;1.80;;;23.60;99.90;;;;;;4826959;29;20405;-77
2023/07/01 10:06:53;;;;;;;3.65;1.60;;;23.60;99.90;;;;;;4831624;29;20058;-76
2023/07/01 10:09:23;;;;;;;3.33;1.55;;;23.60;99.90;;;;;;4826382;29;20146;-77
2023/07/01 10:11:56;;;;;;;2.30;1.63;;;23.70;99.90;;;;;;4825177;29;20050;-77
2023/07/01 10:14:25;;;;;;;2.78;1.40;;;23.60;99.90;;;;;;4826165;29;20050;-77
2023/07/01 10:16:52;;;;;;;2.47;1.47;;;23.70;99.90;;;;;;4826315;29;20050;-76
2023/07/01 10:19:27;;;;;;;5.00;1.73;;;23.70;99.90;;;;;;4824726;29;20058;-76
2023/07/01 10:22:19;;;;;;;7.90;2.00;;;23.70;99.90;;;;;;4829665;29;20089;-79
2023/07/01 10:24:54;;;;;;;2.42;1.52;;;23.70;99.90;;;;;;4828209;29;20517;-76
2023/07/01 10:28:02;;;;;;;5.10;1.83;;;23.60;99.90;;;;;;4823811;29;20050;-77
2023/07/01 10:30:44;;;;;;;5.57;1.85;;;23.50;99.90;;;;;;4827417;29;20054;-77
2023/07/01 10:33:41;;;;;;;5.75;2.03;;;23.40;99.90;;;;;;4843252;29;20054;-76
2023/07/01 10:36:09;;;;;;;3.47;1.65;;;23.50;99.90;;;;;;4825973;29;20055;-76
2023/07/01 10:38:37;;;;;;;7.30;1.55;;;23.40;99.90;;;;;;4827597;29;20542;-77
2023/07/01 10:41:05;;;;;;;5.53;1.70;;;23.50;99.90;;;;;;4828078;29;20145;-79
2023/07/01 10:43:38;;;;;;;3.70;1.60;;;23.60;99.90;;;;;;4822973;29;20055;-76
2023/07/01 10:46:20;;;;;;;3.20;1.45;;;23.70;99.90;;;;;;4824157;29;20087;-77
2023/07/01 10:49:02;;;;;;;4.70;1.70;;;23.80;99.90;;;;;;4826238;29;20076;-76
2023/07/01 10:51:49;;;;;;;2.92;1.58;;;23.90;99.90;;;;;;4830783;29;20133;-77
2023/07/01 10:54:31;;;;;;;4.45;1.70;;;24.10;99.90;;;;;;4823251;29;20070;-75
2023/07/01 10:57:15;;;;;;;3.22;1.90;;;24.20;99.90;;;;;;4823483;29;20524;-77
2023/07/01 10:59:43;;;;;;;3.15;1.30;;;24.30;99.90;;;;;;4829747;29;20504;-77
2023/07/01 11:02:11;;;;;;;4.10;1.63;;;24.40;99.90;;;;;;4824568;29;20053;-77
2023/07/01 11:04:53;;;;;;;5.50;1.48;;;24.60;99.90;;;;;;4830095;29;20527;-76
2023/07/01 11:07:27;;;;;;;2.90;1.70;;;24.70;99.90;;;;;;4827655;29;20513;-77
2023/07/01 11:09:55;;;;;;;2.78;1.38;;;24.80;99.90;;;;;;4823103;29;20054;-77
2023/07/01 11:12:26;;;;;;;2.83;1.50;;;24.80;99.90;;;;;;4823291;29;20424;-77
2023/07/01 11:14:54;;;;;;;6.80;1.75;;;24.90;99.90;;;;;;4826878;29;20050;-77
2023/07/01 11:17:22;;;;;;;3.22;1.63;;;25.00;99.90;;;;;;4823868;29;20054;-77
2023/07/01 11:19:56;;;;;;;5.70;1.75;;;25.10;99.90;;;;;;4827765;29;20050;-78
2023/07/01 11:22:23;;;;;;;4.72;1.90;;;25.20;99.90;;;;;;4827823;29;20050;-79
2023/07/01 11:24:50;;;;;;;3.85;1.63;;;25.30;99.90;;;;;;4823472;29;20054;-77
2023/07/01 11:27:17;;;;;;;5.38;1.70;;;25.40;99.90;;;;;;4823194;29;20050;-77
2023/07/01 11:29:47;;;;;;;2.63;1.40;;;25.50;99.90;;;;;;4830192;29;20082;-79
2023/07/01 11:32:14;;;;;;;4.45;1.35;;;25.50;99.90;;;;;;4826859;29;20055;-78
2023/07/01 11:34:42;;;;;;;3.90;1.75;;;25.50;99.90;;;;;;4832543;29;20054;-78
2023/07/01 11:37:09;;;;;;;4.50;1.65;;;25.40;99.90;;;;;;4832076;29;20129;-78
2023/07/01 11:39:44;;;;;;;5.38;1.50;;;25.40;99.90;;;;;;4826706;29;20437;-78
2023/07/01 11:42:11;;;;;;;2.17;1.48;;;25.20;99.90;;;;;;4824746;29;20054;-79
2023/07/01 11:44:38;;;;;;;3.10;1.67;;;25.00;99.90;;;;;;4830726;29;20050;-78
2023/07/01 11:47:14;;;;;;;3.47;1.67;;;25.00;99.90;;;;;;4828875;29;20111;-78
2023/07/01 11:49:42;;;;;;;2.70;1.75;;;24.80;99.90;;;;;;4832637;29;20119;-78
2023/07/01 11:52:09;;;;;;;3.45;1.63;;;24.80;99.90;;;;;;4827683;29;20540;-78
2023/07/01 11:54:37;;;;;;;4.70;1.80;;;24.80;99.90;;;;;;4826983;29;20050;-77
2023/07/01 11:57:23;;;;;;;4.00;1.42;;;25.00;99.90;;;;;;4827313;29;20046;-79
2023/07/01 11:59:58;;;;;;;2.40;1.55;;;25.00;99.90;;;;;;4834307;29;20081;-78
2023/07/01 12:02:27;;;;;;;4.40;1.45;;;25.10;99.90;;;;;;4827907;29;20099;-78
2023/07/01 12:04:54;;;;;;;2.63;1.35;;;25.10;99.90;;;;;;4835056;29;20469;-78
2023/07/01 12:07:21;;;;;;;3.05;1.50;;;25.10;99.90;;;;;;4827921;29;20050;-79
2023/07/01 12:09:48;;;;;;;4.93;1.60;;;25.00;99.90;;;;;;4827540;29;20473;-78
2023/07/01 12:12:34;;;;;;;4.25;1.73;;;25.00;99.90;;;;;;4826816;29;20085;-78
2023/07/01 12:15:02;;;;;;;4.50;1.85;;;24.90;99.90;;;;;;4831395;29;20050;-78
2023/07/01 12:17:30;;;;;;;4.68;1.45;;;24.70;99.90;;;;;;4825378;29;20071;-78
2023/07/01 12:20:01;;;;;;;3.85;1.33;;;24.60;99.90;;;;;;4831888;29;20072;-79
2023/07/01 12:22:28;;;;;;;3.85;1.25;;;24.40;99.90;;;;;;4825118;29;20072;-77
2023/07/01 12:24:59;;;;;;;3.95;1.35;;;24.30;99.90;;;;;;4825155;29;20497;-77
2023/07/01 12:27:29;;;;;;;5.00;1.42;;;24.30;99.90;;;;;;4824444;29;20046;-76
2023/07/01 12:29:56;;;;;;;1.90;1.20;;;24.30;99.90;;;;;;4826936;29;20524;-77
2023/07/01 12:32:25;;;;;;;2.13;1.45;;;24.30;99.90;;;;;;4825386;29;20085;-76
2023/07/01 12:34:56;;;;;;;3.97;1.35;;;24.20;99.90;;;;;;4821563;29;20054;-77
2023/07/01 12:37:23;;;;;;;1.83;1.08;;;24.20;99.90;;;;;;4823069;29;20477;-77
2023/07/01 12:39:52;;;;;;;4.80;1.45;;;24.20;99.90;;;;;;4823616;29;20047;-77
2023/07/01 12:42:20;;;;;;;4.50;1.40;;;24.20;99.90;;;;;;4822699;29;20083;-77
2023/07/01 12:44:46;;;;;;;4.38;1.38;;;24.20;99.90;;;;;;4831311;29;20054;-77
2023/07/01 12:47:13;;;;;;;4.30;1.60;;;24.20;99.90;;;;;;4828042;29;20058;-77
2023/07/01 12:49:41;;;;;;;3.67;1.40;;;24.30;99.90;;;;;;4826636;29;20133;-76
2023/07/01 12:52:08;;;;;;;2.85;1.45;;;24.30;99.90;;;;;;4825006;29;20179;-78
2023/07/01 12:54:35;;;;;;;6.85;1.45;;;24.40;99.90;;;;;;4827390;29;20042;-77
2023/07/01 12:57:02;;;;;;;8.13;1.73;;;24.50;99.90;;;;;;4823118;29;20521;-77